Terminal Aerodrome Forecast
Issued by NWS Billings, MT

Home | Current Version | Previous Version | Text Only | Print | Product List | Glossary On
Versions: 1 2 3 4 5 6 7 8 9 10 11 12 13 14 15 16 17 18 19 20 21 22 23
000
FTUS45 KBYZ 282320
TAFSHR
TAF
KSHR 282320Z 2900/2924 VRB05KT P6SM FEW060 SCT100 BKN200
     FM290600 VRB05KT P6SM VCTS SCT060CB BKN120
     FM291200 VRB05KT P6SM VCSH BKN050 OVC150
     FM292100 VRB05KT P6SM SCT080 SCT200=

USA.gov is the U.S. government's official web portal to all federal, state and local government web resources and services.